Buoy 63566

sailwx.info

Track history (hours):
 
Tides and Currents Weather Stations Pressure Air Temp Water Temp Dewpoint Dewpoint Depression Visibility Wind Speed Wind Dir Waves Ship Positions

Drifting buoy 63566

Last reported at 2018-Aug-14 18:00 UTC. Time now 2018-Aug-14 19:27 UTC.
Position N 72°40' E 041°16'.

Water temperature 9.1 ° C

Date/timePositionNaut miles runAvg speedWind from/ knotsBaromVisibWave heightAir tempDewpointWater temp
2018-Aug-14 18:00N 72°40' E 041°16'0 0.4 9.1
2018-Aug-14 17:00N 72°40' E 041°14'1 0.9 9.1
2018-Aug-14 16:00N 72°40' E 041°12'3 3.4 9.0
2018-Aug-14 15:00N 72°42' E 041°22'4 1.9 8.9
2018-Aug-14 13:00N 72°41' E 041°10'0 0.4 8.9
2018-Aug-14 12:00N 72°41' E 041°08'0 0.2 8.8
2018-Aug-14 11:00N 72°41' E 041°09'0 0.2 8.7
2018-Aug-14 10:00N 72°41' E 041°08'2 0.6 8.8
2018-Aug-14 07:00N 72°43' E 041°08'0 0.2 8.5
2018-Aug-14 06:00N 72°43' E 041°08'1 0.6 8.2
2018-Aug-14 05:00N 72°43' E 041°09'2 0.5 8.1
2018-Aug-14 01:00N 72°45' E 041°05'5 0.5 7.6
2018-Aug-13 13:00N 72°50' E 041°05'7 0.3 7.3
2018-Aug-12 17:00N 72°57' E 041°04'4 0.4 7.3
2018-Aug-12 08:00N 73°01' E 041°01'0 0.0 7.3
2018-Aug-12 07:00N 73°01' E 041°01'10 0.9 7.3
2018-Aug-11 19:00N 73°11' E 041°07'2 0.2 7.3
2018-Aug-11 04:00N 73°13' E 041°07'2 2.4 7.2
2018-Aug-11 03:00N 73°11' E 041°06'8 0.8 7.2
2018-Aug-10 17:00N 73°18' E 040°52'6 0.6 7.6
2018-Aug-10 07:00N 73°23' E 040°41'0 0.0 7.6
2018-Aug-10 06:00N 73°23' E 040°41'0 0.0 7.6
2018-Aug-09 13:00N 73°23' E 040°42'4 0.6 7.6
2018-Aug-09 07:00N 73°26' E 040°35'1 1.0 7.9
2018-Aug-09 06:00N 73°26' E 040°32'0 0.2 7.9
2018-Aug-09 05:00N 73°26' E 040°32'1 1.3 7.9
2018-Aug-09 04:00N 73°27' E 040°28'0 0.0 7.9
2018-Aug-09 03:00N 73°27' E 040°28'0 0.0 7.9
2018-Aug-09 02:00N 73°27' E 040°28'1 1.2 7.9
2018-Aug-09 01:00N 73°28' E 040°26'5 5.4 8.0
2018-Aug-09 00:00N 73°33' E 040°18'5 5.4 8.0
2018-Aug-08 23:00N 73°28' E 040°26'5 1.3 8.1
2018-Aug-08 19:00N 73°33' E 040°18'1 0.8 8.1
2018-Aug-08 18:00N 73°34' E 040°16'2 0.5 8.1
2018-Aug-08 14:00N 73°34' E 040°10'1 0.6 8.1
2018-Aug-08 12:00N 73°34' E 040°06'1 1.0 8.0
2018-Aug-08 11:00N 73°35' E 040°03'1 0.8 8.1
2018-Aug-08 10:00N 73°35' E 040°01'1 0.8 8.1
2018-Aug-08 09:00N 73°36' E 039°59'1 1.0 8.2
2018-Aug-08 08:00N 73°36' E 039°56'0 0.2 8.2
2018-Aug-08 07:00N 73°36' E 039°55'1 1.0 8.2
2018-Aug-08 06:00N 73°35' E 039°52'1 1.2 8.3
2018-Aug-08 05:00N 73°35' E 039°48'1 1.5 8.3
2018-Aug-08 04:00N 73°35' E 039°43'4 1.8 8.2
2018-Aug-08 02:00N 73°38' E 039°37'0 0.0 8.1
2018-Aug-07 18:00N 73°38' E 039°37'2 2.0 8.1
2018-Aug-07 17:00N 73°38' E 039°29'1 0.5 8.1
2018-Aug-07 16:00N 73°38' E 039°31'1 1.2 8.2
2018-Aug-07 15:00N 73°38' E 039°27'0 0.3 8.3
2018-Aug-07 14:00N 73°38' E 039°26'1 0.9 8.3
2018-Aug-07 13:00N 73°38' E 039°23'1 1.4 8.4
2018-Aug-07 12:00N 73°40' E 039°26'2 2.4 8.4
2018-Aug-07 11:00N 73°38' E 039°19'1 0.8 8.5
2018-Aug-07 10:00N 73°39' E 039°20'2 0.8 8.5
2018-Aug-07 08:00N 73°40' E 039°17'0 0.3 8.5
2018-Aug-07 07:00N 73°40' E 039°16'0 0.2 8.5
2018-Aug-07 06:00N 73°40' E 039°15'2 1.6 8.5
2018-Aug-07 05:00N 73°41' E 039°19'2 1.9 8.5
2018-Aug-07 04:00N 73°41' E 039°12'0 0.0 8.5
2018-Aug-07 03:00N 73°41' E 039°12'1 0.3 8.5
2018-Aug-07 01:00N 73°41' E 039°10'3 2.6 8.4
2018-Aug-07 00:00N 73°44' E 039°13'1 0.1 8.5
2018-Aug-06 20:00N 73°44' E 039°11'1 0.5 8.5
2018-Aug-06 18:00N 73°44' E 039°09'1 0.3 8.6
2018-Aug-06 16:00N 73°44' E 039°07'1 0.2 8.5
2018-Aug-06 12:00N 73°45' E 039°08'1 0.5 8.3
2018-Aug-06 10:00N 73°46' E 039°10'1 0.6 8.3
2018-Aug-06 09:00N 73°46' E 039°10'0 0.0 8.3
2018-Aug-06 08:00N 73°46' E 039°10'0 0.0 8.1
2018-Aug-06 07:00N 73°46' E 039°10'2 1.2 8.1
2018-Aug-06 05:00N 73°49' E 039°07'1 0.6 8.2
2018-Aug-06 04:00N 73°48' E 039°07'1 0.6 8.1
2018-Aug-06 03:00N 73°49' E 039°07'   8.1
Track history (hours):
 
Tides and Currents Weather Stations Pressure Air Temp Water Temp Dewpoint Dewpoint Depression Visibility Wind Speed Wind Dir Waves Ship Positions

Drifting buoy 63566

Last reported at 2018-Aug-14 18:00 UTC. Time now 2018-Aug-14 19:27 UTC.
Position N 72°40' E 041°16'.

Water temperature 9.1 ° C

Date/timePositionNaut miles runAvg speedWind from/ knotsBaromVisibWave heightAir tempDewpointWater temp
2018-Aug-14 18:00N 72°40' E 041°16'0 0.4 9.1
2018-Aug-14 17:00N 72°40' E 041°14'1 0.9 9.1
2018-Aug-14 16:00N 72°40' E 041°12'3 3.4 9.0
2018-Aug-14 15:00N 72°42' E 041°22'4 1.9 8.9
2018-Aug-14 13:00N 72°41' E 041°10'0 0.4 8.9
2018-Aug-14 12:00N 72°41' E 041°08'0 0.2 8.8
2018-Aug-14 11:00N 72°41' E 041°09'0 0.2 8.7
2018-Aug-14 10:00N 72°41' E 041°08'2 0.6 8.8
2018-Aug-14 07:00N 72°43' E 041°08'0 0.2 8.5
2018-Aug-14 06:00N 72°43' E 041°08'1 0.6 8.2
2018-Aug-14 05:00N 72°43' E 041°09'2 0.5 8.1
2018-Aug-14 01:00N 72°45' E 041°05'5 0.5 7.6
2018-Aug-13 13:00N 72°50' E 041°05'7 0.3 7.3
2018-Aug-12 17:00N 72°57' E 041°04'4 0.4 7.3
2018-Aug-12 08:00N 73°01' E 041°01'0 0.0 7.3
2018-Aug-12 07:00N 73°01' E 041°01'10 0.9 7.3
2018-Aug-11 19:00N 73°11' E 041°07'2 0.2 7.3
2018-Aug-11 04:00N 73°13' E 041°07'2 2.4 7.2
2018-Aug-11 03:00N 73°11' E 041°06'8 0.8 7.2
2018-Aug-10 17:00N 73°18' E 040°52'6 0.6 7.6
2018-Aug-10 07:00N 73°23' E 040°41'0 0.0 7.6
2018-Aug-10 06:00N 73°23' E 040°41'0 0.0 7.6
2018-Aug-09 13:00N 73°23' E 040°42'4 0.6 7.6
2018-Aug-09 07:00N 73°26' E 040°35'1 1.0 7.9
2018-Aug-09 06:00N 73°26' E 040°32'0 0.2 7.9
2018-Aug-09 05:00N 73°26' E 040°32'1 1.3 7.9
2018-Aug-09 04:00N 73°27' E 040°28'0 0.0 7.9
2018-Aug-09 03:00N 73°27' E 040°28'0 0.0 7.9
2018-Aug-09 02:00N 73°27' E 040°28'1 1.2 7.9
2018-Aug-09 01:00N 73°28' E 040°26'5 5.4 8.0
2018-Aug-09 00:00N 73°33' E 040°18'5 5.4 8.0
2018-Aug-08 23:00N 73°28' E 040°26'5 1.3 8.1
2018-Aug-08 19:00N 73°33' E 040°18'1 0.8 8.1
2018-Aug-08 18:00N 73°34' E 040°16'2 0.5 8.1
2018-Aug-08 14:00N 73°34' E 040°10'1 0.6 8.1
2018-Aug-08 12:00N 73°34' E 040°06'1 1.0 8.0
2018-Aug-08 11:00N 73°35' E 040°03'1 0.8 8.1
2018-Aug-08 10:00N 73°35' E 040°01'1 0.8 8.1
2018-Aug-08 09:00N 73°36' E 039°59'1 1.0 8.2
2018-Aug-08 08:00N 73°36' E 039°56'0 0.2 8.2
2018-Aug-08 07:00N 73°36' E 039°55'1 1.0 8.2
2018-Aug-08 06:00N 73°35' E 039°52'1 1.2 8.3
2018-Aug-08 05:00N 73°35' E 039°48'1 1.5 8.3
2018-Aug-08 04:00N 73°35' E 039°43'4 1.8 8.2
2018-Aug-08 02:00N 73°38' E 039°37'0 0.0 8.1
2018-Aug-07 18:00N 73°38' E 039°37'2 2.0 8.1
2018-Aug-07 17:00N 73°38' E 039°29'1 0.5 8.1
2018-Aug-07 16:00N 73°38' E 039°31'1 1.2 8.2
2018-Aug-07 15:00N 73°38' E 039°27'0 0.3 8.3
2018-Aug-07 14:00N 73°38' E 039°26'1 0.9 8.3
2018-Aug-07 13:00N 73°38' E 039°23'1 1.4 8.4
2018-Aug-07 12:00N 73°40' E 039°26'2 2.4 8.4
2018-Aug-07 11:00N 73°38' E 039°19'1 0.8 8.5
2018-Aug-07 10:00N 73°39' E 039°20'2 0.8 8.5
2018-Aug-07 08:00N 73°40' E 039°17'0 0.3 8.5
2018-Aug-07 07:00N 73°40' E 039°16'0 0.2 8.5
2018-Aug-07 06:00N 73°40' E 039°15'2 1.6 8.5
2018-Aug-07 05:00N 73°41' E 039°19'2 1.9 8.5
2018-Aug-07 04:00N 73°41' E 039°12'0 0.0 8.5
2018-Aug-07 03:00N 73°41' E 039°12'1 0.3 8.5
2018-Aug-07 01:00N 73°41' E 039°10'3 2.6 8.4
2018-Aug-07 00:00N 73°44' E 039°13'1 0.1 8.5
2018-Aug-06 20:00N 73°44' E 039°11'1 0.5 8.5
2018-Aug-06 18:00N 73°44' E 039°09'1 0.3 8.6
2018-Aug-06 16:00N 73°44' E 039°07'1 0.2 8.5
2018-Aug-06 12:00N 73°45' E 039°08'1 0.5 8.3
2018-Aug-06 10:00N 73°46' E 039°10'1 0.6 8.3
2018-Aug-06 09:00N 73°46' E 039°10'0 0.0 8.3
2018-Aug-06 08:00N 73°46' E 039°10'0 0.0 8.1
2018-Aug-06 07:00N 73°46' E 039°10'2 1.2 8.1
2018-Aug-06 05:00N 73°49' E 039°07'1 0.6 8.2
2018-Aug-06 04:00N 73°48' E 039°07'1 0.6 8.1
2018-Aug-06 03:00N 73°49' E 039°07'   8.1

Dump ship's entire track history